Time;durP1;ratioP1;P1;durP2;ratioP2;P2;SDS_P1;SDS_P2;PMS_P1;PMS_P2;Temp;Humidity;BMP_temperature;BMP_pressure;BME280_temperature;BME280_humidity;BME280_pressure;Samples;Min_cycle;Max_cycle;Signal;HPM_P1;HPM_P2
2023/07/02 00:00:41;;;;;;;14.60;11.10;;;22.00;94.90;;;21.00;82.67;99099.47;12366863;23;96668;-85
2023/07/02 00:05:45;;;;;;;12.65;9.75;;;22.00;94.80;;;21.00;82.51;99104.88;12367990;23;96909;-84
2023/07/02 00:10:49;;;;;;;10.93;8.93;;;21.90;94.90;;;21.01;82.44;99101.09;12344933;23;96811;-85
2023/07/02 00:15:53;;;;;;;11.13;9.15;;;22.00;94.90;;;20.97;82.41;99104.59;12342388;23;97305;-85
2023/07/02 00:20:56;;;;;;;13.43;10.35;;;22.00;94.70;;;20.93;82.11;99104.31;12342832;23;96900;-84
2023/07/02 00:26:00;;;;;;;13.95;9.15;;;21.90;94.80;;;20.87;81.94;99104.53;12366634;23;96506;-85
2023/07/02 00:31:04;;;;;;;11.27;10.00;;;21.90;94.90;;;20.73;81.98;99101.47;12320302;23;96389;-85
2023/07/02 00:36:14;;;;;;;12.63;9.70;;;21.70;95.00;;;20.66;82.05;99100.91;12366389;23;96480;-85
2023/07/02 00:41:17;;;;;;;12.60;9.60;;;21.60;95.20;;;20.56;81.27;99093.53;12343810;23;96651;-85
2023/07/02 00:46:24;;;;;;;11.85;8.65;;;21.50;95.10;;;20.53;80.90;99096.78;12319939;23;96651;-85
2023/07/02 00:51:29;;;;;;;12.68;9.32;;;21.40;95.10;;;20.46;80.70;99091.59;12343672;23;96519;-85
2023/07/02 00:56:33;;;;;;;9.93;8.63;;;21.40;95.00;;;20.38;80.64;99086.63;12343759;23;97471;-85
2023/07/02 01:01:37;;;;;;;10.05;8.40;;;21.30;95.10;;;20.36;80.48;99096.88;12337585;23;96896;-85
2023/07/02 01:06:42;;;;;;;11.43;8.23;;;21.30;95.10;;;20.35;80.51;99094.44;12317848;23;96463;-84
2023/07/02 01:11:53;;;;;;;10.77;7.85;;;21.30;95.00;;;20.37;80.13;99100.38;12319316;23;96504;-84
2023/07/02 01:16:58;;;;;;;9.25;7.30;;;21.30;94.90;;;20.35;79.34;99097.16;12344039;23;96873;-85
2023/07/02 01:22:03;;;;;;;10.60;7.30;;;21.30;94.70;;;20.33;78.76;99102.78;12344100;23;96432;-85
2023/07/02 01:27:07;;;;;;;10.50;7.40;;;21.20;94.50;;;20.31;78.84;99104.94;12342836;23;96748;-85
2023/07/02 01:32:11;;;;;;;9.15;7.10;;;21.20;94.50;;;20.31;78.46;99104.94;12344387;23;96377;-84
2023/07/02 01:37:19;;;;;;;10.68;6.75;;;21.20;94.40;;;20.21;78.44;99096.75;12344027;23;96390;-85
2023/07/02 01:42:22;;;;;;;7.90;6.90;;;21.20;94.30;;;20.24;78.30;99104.34;12343382;23;96523;-85
2023/07/02 01:47:26;;;;;;;11.55;7.00;;;21.20;94.30;;;20.17;78.82;99109.94;12319380;23;96488;-85
2023/07/02 01:52:32;;;;;;;7.75;6.53;;;21.10;94.40;;;20.12;78.49;99109.09;12342832;23;96415;-85
2023/07/02 01:57:39;;;;;;;9.25;6.82;;;21.00;94.40;;;20.09;78.33;99113.13;12344203;23;96595;-85
2023/07/02 02:02:43;;;;;;;9.30;6.43;;;21.00;94.30;;;20.09;78.64;99110.44;12343462;23;97136;-84
2023/07/02 02:07:47;;;;;;;9.15;7.05;;;21.00;94.40;;;20.08;78.35;99106.09;12343555;23;96991;-85
2023/07/02 02:12:50;;;;;;;9.82;6.93;;;21.00;94.30;;;20.00;78.07;99107.38;12319351;23;96754;-85
2023/07/02 02:17:54;;;;;;;7.57;6.25;;;21.00;94.30;;;20.09;77.96;99106.91;12343006;23;96735;-85
2023/07/02 02:22:58;;;;;;;8.23;5.95;;;21.00;94.20;;;20.09;77.71;99101.50;12366564;23;96302;-85
2023/07/02 02:28:02;;;;;;;8.30;6.00;;;21.00;94.10;;;20.11;76.98;99096.69;12345124;23;96432;-85
2023/07/02 02:33:06;;;;;;;8.27;5.60;;;21.10;93.90;;;20.11;76.79;99100.19;12369713;23;96384;-85
2023/07/02 02:38:10;;;;;;;8.65;6.25;;;21.10;93.90;;;20.10;76.56;99095.06;12370289;23;96359;-85
2023/07/02 02:43:16;;;;;;;6.63;5.03;;;21.10;93.80;;;20.12;76.07;99092.91;12346429;23;96451;-85
2023/07/02 02:48:22;;;;;;;9.15;5.10;;;21.10;93.60;;;20.12;76.09;99090.22;12345035;23;96568;-85
2023/07/02 02:53:25;;;;;;;6.13;4.97;;;21.00;93.50;;;20.10;75.35;99082.38;12344219;23;96517;-85
2023/07/02 02:58:30;;;;;;;6.05;4.72;;;21.10;93.40;;;20.10;75.44;99085.09;12345073;23;97018;-85
2023/07/02 03:03:38;;;;;;;5.90;5.13;;;21.10;93.30;;;20.11;74.31;99080.50;12344603;23;97020;-84
2023/07/02 03:08:42;;;;;;;8.15;4.90;;;21.10;93.00;;;20.12;73.80;99076.72;12322472;23;96467;-85
2023/07/02 03:13:46;;;;;;;7.85;5.20;;;21.10;92.80;;;20.22;73.49;99082.22;12342943;23;96480;-84
2023/07/02 03:18:50;;;;;;;7.68;4.78;;;21.10;92.70;;;20.25;72.43;99082.50;12367922;23;96875;-85
2023/07/02 03:23:54;;;;;;;7.40;4.93;;;21.20;92.40;;;20.35;72.45;99087.16;12344357;23;96732;-85
2023/07/02 03:28:58;;;;;;;6.55;4.10;;;21.30;92.20;;;20.39;70.78;99082.88;12369104;23;96833;-85
2023/07/02 03:34:09;;;;;;;5.50;4.13;;;21.40;91.90;;;20.42;70.97;99081.53;12343730;23;96449;-85
2023/07/02 03:39:13;;;;;;;6.18;3.78;;;21.40;91.70;;;20.51;69.89;99091.66;12344600;23;96801;-85
2023/07/02 03:44:16;;;;;;;10.32;4.32;;;21.50;91.50;;;20.56;69.10;99094.34;12343805;23;96630;-85
2023/07/02 03:49:21;;;;;;;5.88;4.40;;;21.50;91.10;;;20.60;69.21;99099.25;12345488;23;96436;-85
2023/07/02 03:54:25;;;;;;;6.25;4.00;;;21.50;91.00;;;20.61;68.82;99096.28;12343989;23;96438;-85
2023/07/02 03:59:29;;;;;;;6.97;4.38;;;21.50;90.90;;;20.68;68.41;99101.44;12342899;23;96378;-85
2023/07/02 04:04:33;;;;;;;5.45;4.30;;;21.60;90.80;;;20.71;68.56;99095.53;12320211;23;96391;-85
2023/07/02 04:09:36;;;;;;;6.93;4.32;;;21.60;90.70;;;20.78;68.12;99099.63;12320512;23;96693;-85
2023/07/02 04:14:40;;;;;;;6.20;4.88;;;21.70;90.60;;;20.92;68.06;99107.25;12319726;23;96599;-85
2023/07/02 04:19:44;;;;;;;6.30;5.18;;;21.80;90.50;;;21.04;67.57;99103.25;12343441;23;96428;-86
2023/07/02 04:24:48;;;;;;;6.35;4.68;;;21.90;90.60;;;21.13;67.67;99108.19;12368612;23;97417;-85
2023/07/02 04:29:55;;;;;;;8.10;4.60;;;22.00;90.30;;;21.23;68.12;99114.44;12343839;23;96809;-85
2023/07/02 04:35:00;;;;;;;6.38;4.30;;;22.10;90.40;;;21.25;68.07;99112.28;12343857;23;96564;-85
2023/07/02 04:40:11;;;;;;;8.02;4.47;;;22.20;90.40;;;21.30;68.82;99122.34;12367483;23;96466;-85
2023/07/02 04:45:15;;;;;;;6.20;4.30;;;22.20;90.60;;;21.25;68.52;99123.09;12344177;23;96668;-85
2023/07/02 04:50:20;;;;;;;6.82;4.82;;;22.20;90.50;;;21.11;68.30;99133.56;12322228;23;96530;-85
2023/07/02 04:55:25;;;;;;;7.80;4.68;;;22.00;90.50;;;20.99;69.18;99142.94;12367003;23;96438;-85
2023/07/02 05:00:28;;;;;;;5.60;4.40;;;21.90;90.80;;;20.91;70.36;99149.66;12318899;23;96986;-86
2023/07/02 05:05:32;;;;;;;8.20;4.32;;;21.80;91.10;;;20.89;71.06;99151.81;12368161;23;96420;-85
2023/07/02 05:10:36;;;;;;;6.90;4.40;;;21.80;91.30;;;20.96;70.55;99152.38;12344075;23;96487;-85
2023/07/02 05:15:40;;;;;;;6.55;4.13;;;21.90;91.40;;;21.01;70.80;99152.41;12367932;23;96435;-84
2023/07/02 05:20:44;;;;;;;7.88;4.03;;;21.90;91.40;;;21.11;70.66;99149.78;12320372;23;96710;-85
2023/07/02 05:25:48;;;;;;;5.78;4.30;;;22.00;91.40;;;21.28;69.44;99159.56;12366012;23;96959;-85
2023/07/02 05:30:52;;;;;;;10.15;4.60;;;22.20;91.10;;;21.37;67.95;99153.44;12367048;23;96831;-85
2023/07/02 05:35:56;;;;;;;7.20;4.20;;;22.30;90.60;;;21.51;67.71;99169.16;12338842;23;96700;-86
2023/07/02 05:41:01;;;;;;;6.65;4.40;;;22.30;90.40;;;21.57;67.83;99152.69;12342571;23;96564;-87
2023/07/02 05:46:05;;;;;;;9.18;4.47;;;22.50;90.40;;;21.70;67.85;99164.09;12340134;23;96646;-86
2023/07/02 05:51:09;;;;;;;6.20;4.80;;;22.60;90.50;;;21.87;68.56;99164.69;12360730;23;96483;-85
2023/07/02 05:56:12;;;;;;;6.65;4.15;;;22.70;90.50;;;22.13;68.62;99169.09;12320781;23;96698;-85
2023/07/02 06:01:16;;;;;;;5.97;4.63;;;23.00;90.90;;;22.41;67.11;99166.94;12318263;23;96521;-86
2023/07/02 06:06:25;;;;;;;9.93;4.57;;;23.30;90.30;;;22.61;66.17;99175.09;12350332;23;96384;-85
2023/07/02 06:11:30;;;;;;;8.02;4.50;;;23.50;89.90;;;22.81;65.57;99170.72;12342748;23;96390;-85
2023/07/02 06:16:34;;;;;;;6.68;3.97;;;23.70;89.70;;;22.96;61.80;99173.44;12340105;23;96809;-86
2023/07/02 06:21:38;;;;;;;5.07;3.65;;;23.80;87.60;;;23.03;60.01;99167.72;12316437;23;96979;-86
2023/07/02 06:26:41;;;;;;;5.45;3.85;;;23.90;85.00;;;23.19;59.83;99164.72;12339130;23;96978;-86
2023/07/02 06:31:45;;;;;;;5.90;3.80;;;24.00;84.40;;;23.38;56.16;99169.53;12367017;23;96404;-86
2023/07/02 06:36:49;;;;;;;6.32;3.70;;;24.20;82.00;;;23.53;55.83;99182.22;12340902;23;96435;-86
2023/07/02 06:41:52;;;;;;;4.20;3.38;;;24.40;80.80;;;23.70;54.88;99188.16;12343127;23;96389;-85
2023/07/02 06:46:56;;;;;;;5.03;3.30;;;24.50;79.80;;;23.83;55.01;99192.97;12319267;23;96600;-86
2023/07/02 06:52:00;;;;;;;3.45;2.72;;;24.70;79.70;;;23.97;54.71;99193.16;12368860;23;96952;-84
2023/07/02 06:57:04;;;;;;;5.20;3.15;;;24.80;79.20;;;24.19;54.83;99204.41;12342052;23;96640;-85
2023/07/02 07:02:09;;;;;;;5.03;3.13;;;25.10;79.00;;;24.41;53.88;99214.06;12319056;23;96577;-86
2023/07/02 07:07:13;;;;;;;5.43;3.20;;;25.30;78.30;;;24.59;52.64;99216.13;12319473;23;96456;-85
2023/07/02 07:12:16;;;;;;;6.20;3.40;;;25.50;77.50;;;24.74;53.44;99213.25;12346402;23;96499;-85
2023/07/02 07:17:20;;;;;;;3.88;2.60;;;25.60;77.50;;;24.94;52.42;99220.41;12344639;23;96393;-85
2023/07/02 07:22:24;;;;;;;5.80;2.80;;;25.90;76.60;;;25.13;51.83;99226.00;12321945;23;96476;-85
2023/07/02 07:27:27;;;;;;;4.40;2.65;;;26.10;76.20;;;25.33;51.76;99224.97;12343883;23;96438;-85
2023/07/02 07:32:32;;;;;;;4.07;2.92;;;26.30;75.90;;;25.58;51.41;99221.13;12344619;23;96577;-85
2023/07/02 07:37:36;;;;;;;4.43;2.63;;;26.50;76.20;;;25.88;50.55;99207.19;12345181;23;96521;-85
2023/07/02 07:42:42;;;;;;;4.78;2.70;;;26.90;75.20;;;26.27;50.66;99219.72;12344676;23;96713;-86
2023/07/02 07:47:46;;;;;;;4.28;2.78;;;27.20;75.00;;;26.30;46.62;99232.72;12344205;23;96573;-85
2023/07/02 07:52:51;;;;;;;4.07;2.35;;;27.30;71.70;;;26.13;46.96;99226.97;12344980;23;96541;-85
2023/07/02 07:57:54;;;;;;;4.70;2.95;;;27.10;70.70;;;25.98;46.62;99229.94;12372199;23;96720;-84
2023/07/02 08:02:59;;;;;;;4.32;2.83;;;26.90;70.50;;;25.88;47.55;99233.59;12349315;23;96822;-85
2023/07/02 08:08:03;;;;;;;3.80;2.70;;;26.80;70.90;;;25.69;49.07;99241.69;12344473;23;96348;-86
2023/07/02 08:13:08;;;;;;;5.00;3.40;;;26.60;72.20;;;25.51;50.76;99253.31;12344516;23;96444;-85
2023/07/02 08:18:13;;;;;;;4.20;2.60;;;26.40;73.20;;;25.33;52.15;99257.59;12342777;23;96445;-84
2023/07/02 08:23:17;;;;;;;3.75;2.80;;;26.30;74.20;;;25.25;52.13;99261.75;12345386;23;96541;-86
2023/07/02 08:28:20;;;;;;;3.92;2.72;;;26.20;74.70;;;25.35;52.76;99266.25;12343973;23;96402;-85
2023/07/02 08:33:24;;;;;;;3.08;2.45;;;26.20;75.00;;;25.43;51.81;99268.38;12368532;23;96405;-85
2023/07/02 08:38:28;;;;;;;3.45;2.60;;;26.30;74.70;;;25.45;52.33;99265.34;12367256;23;96983;-85
2023/07/02 08:43:32;;;;;;;4.03;2.65;;;26.30;74.70;;;25.55;50.71;99265.22;12343680;23;96606;-85
2023/07/02 08:48:35;;;;;;;4.00;2.40;;;26.40;73.80;;;25.60;50.14;99265.19;12341040;23;96544;-86
2023/07/02 08:53:39;;;;;;;4.80;2.75;;;26.40;73.10;;;25.66;49.37;99277.63;12344549;23;96468;-85
2023/07/02 08:58:42;;;;;;;3.55;2.80;;;26.50;72.50;;;25.67;49.32;99279.28;12344528;23;96401;-85
2023/07/02 09:03:46;;;;;;;3.22;2.63;;;26.50;71.90;;;25.74;48.84;99276.22;12341671;23;96567;-86
2023/07/02 09:08:50;;;;;;;4.28;3.33;;;26.60;71.70;;;25.82;49.25;99265.50;12342269;23;96486;-86
2023/07/02 09:13:58;;;;;;;4.55;3.03;;;26.70;72.10;;;25.87;49.58;99273.59;12343494;23;96919;-85
2023/07/02 09:19:05;;;;;;;6.23;3.53;;;26.70;72.10;;;25.76;48.65;99271.28;12344272;23;96431;-85
2023/07/02 09:24:20;;;;;;;5.55;4.13;;;26.70;72.10;;;25.89;48.02;99278.75;12321133;23;96461;-85
2023/07/02 09:29:32;;;;;;;5.10;3.63;;;26.70;70.80;;;26.10;48.60;99265.69;12368103;23;96412;-86
2023/07/02 09:34:38;;;;;;;5.85;3.42;;;27.00;71.10;;;26.33;48.08;99272.16;12342778;23;96416;-88
2023/07/02 09:39:43;;;;;;;5.90;3.65;;;27.20;70.60;;;26.54;45.71;99261.84;12344160;23;97212;-89
2023/07/02 09:44:48;;;;;;;6.03;3.70;;;27.40;69.10;;;26.67;45.68;99270.06;12344228;23;96929;-87
2023/07/02 09:50:05;;;;;;;4.53;3.05;;;27.50;68.50;;;26.86;46.10;99271.94;12342192;23;96434;-86
2023/07/02 09:55:10;;;;;;;5.05;3.53;;;27.70;68.90;;;27.03;46.09;99279.56;12344209;23;97018;-86
2023/07/02 10:00:15;;;;;;;6.22;3.10;;;27.90;68.50;;;27.04;45.75;99281.19;12339733;23;96867;-86
2023/07/02 10:05:32;;;;;;;4.95;3.40;;;27.90;68.00;;;27.04;44.67;99276.53;12318521;23;97040;-87
2023/07/02 10:10:36;;;;;;;4.97;3.50;;;28.00;66.90;;;27.16;43.64;99284.28;12341533;23;96537;-87
2023/07/02 10:15:40;;;;;;;4.15;3.13;;;28.00;66.50;;;27.32;44.63;99279.38;12339330;23;96623;-86
2023/07/02 10:20:43;;;;;;;4.40;3.33;;;28.20;67.00;;;27.23;43.73;99278.44;12341859;23;96502;-86
2023/07/02 10:25:47;;;;;;;4.40;2.97;;;28.10;66.70;;;27.11;45.04;99271.56;12364771;23;96635;-87
2023/07/02 10:30:53;;;;;;;3.42;2.78;;;28.00;67.00;;;27.08;44.80;99276.78;12342021;23;96558;-86
2023/07/02 10:35:56;;;;;;;3.75;2.88;;;28.00;66.60;;;27.10;43.81;99271.84;12343677;23;96840;-87
2023/07/02 10:41:00;;;;;;;4.07;2.85;;;28.00;66.30;;;27.11;43.05;99268.00;12341444;23;96700;-87
2023/07/02 10:46:05;;;;;;;4.65;2.80;;;28.00;64.90;;;27.27;44.32;99260.38;12343213;23;96639;-87
2023/07/02 10:51:13;;;;;;;7.40;3.08;;;28.10;65.90;;;27.42;45.03;99269.09;12342348;23;96534;-87
2023/07/02 10:56:17;;;;;;;3.30;2.50;;;28.30;66.50;;;27.65;45.05;99264.56;12343362;23;96963;-87
2023/07/02 11:01:30;;;;;;;4.28;2.78;;;28.50;66.50;;;27.82;42.59;99268.59;12321395;23;96381;-87
2023/07/02 11:06:34;;;;;;;6.45;3.08;;;28.70;65.10;;;27.94;42.47;99260.69;12347126;23;96606;-87
2023/07/02 11:11:37;;;;;;;4.60;3.05;;;28.80;64.70;;;27.98;41.50;99256.25;12363951;23;96503;-88
2023/07/02 11:16:41;;;;;;;5.80;2.60;;;28.90;63.80;;;28.12;41.63;99259.75;12320968;23;97167;-87
2023/07/02 11:21:58;;;;;;;4.82;2.50;;;29.00;63.70;;;28.09;41.50;99248.66;12321665;23;96406;-86
2023/07/02 11:27:05;;;;;;;3.88;2.25;;;29.00;63.10;;;28.11;40.90;99257.34;12368162;23;96454;-89
2023/07/02 11:32:11;;;;;;;6.40;2.70;;;29.00;62.80;;;28.02;41.95;99240.09;12344226;23;96678;-87
2023/07/02 11:37:15;;;;;;;3.83;2.33;;;28.90;63.00;;;28.07;41.90;99248.13;12344504;23;96439;-87
2023/07/02 11:42:20;;;;;;;3.50;2.50;;;29.00;63.20;;;28.21;41.14;99251.66;12343243;23;96432;-87
2023/07/02 11:47:25;;;;;;;4.63;2.45;;;29.00;62.70;;;28.24;40.91;99242.84;12343606;23;96398;-87
2023/07/02 11:52:28;;;;;;;3.83;2.70;;;29.20;62.30;;;28.46;40.36;99245.66;12344309;23;96403;-87
2023/07/02 11:57:33;;;;;;;3.15;2.28;;;29.40;61.70;;;28.47;39.24;99251.91;12368077;23;96884;-88
2023/07/02 12:02:36;;;;;;;4.35;2.22;;;29.40;60.50;;;28.52;40.19;99249.06;12320773;23;96432;-87
2023/07/02 12:07:41;;;;;;;7.20;2.20;;;29.50;60.70;;;28.63;38.57;99247.72;12321402;23;96777;-89
2023/07/02 12:12:45;;;;;;;4.50;2.20;;;29.80;59.90;;;28.75;39.51;99252.63;12343721;23;96415;-90
2023/07/02 12:17:48;;;;;;;3.88;2.20;;;30.10;59.70;;;28.85;39.04;99243.34;12344391;23;96859;-89
2023/07/02 12:22:52;;;;;;;3.30;2.30;;;30.50;59.30;;;29.14;39.60;99242.91;12321293;23;96459;-88
2023/07/02 12:27:55;;;;;;;4.45;1.98;;;30.90;59.30;;;29.48;38.57;99251.28;12343402;23;96361;-89
2023/07/02 12:32:59;;;;;;;3.95;2.22;;;31.20;58.60;;;29.78;38.02;99246.09;12342360;23;96740;-87
2023/07/02 12:38:03;;;;;;;2.90;1.70;;;31.50;57.80;;;30.18;37.05;99224.94;12344240;23;96360;-88
2023/07/02 12:43:08;;;;;;;2.38;1.70;;;31.70;57.30;;;30.51;36.87;99233.47;12320949;23;97052;-89
2023/07/02 12:48:12;;;;;;;2.17;1.50;;;31.80;57.20;;;30.71;35.87;99234.78;12342697;23;96428;-89
2023/07/02 12:53:15;;;;;;;1.55;1.27;;;31.80;56.50;;;30.94;35.83;99232.63;12343473;23;96458;-88
2023/07/02 12:58:19;;;;;;;1.25;0.98;;;32.00;56.60;;;30.95;36.00;99230.69;12343126;23;96472;-88
2023/07/02 13:03:24;;;;;;;0.88;0.73;;;32.00;56.40;;;30.96;35.13;99218.59;12341541;23;96682;-88
2023/07/02 13:08:28;;;;;;;2.15;0.80;;;32.20;55.30;;;31.14;34.34;99229.19;12345517;23;97123;-89
2023/07/02 13:13:32;;;;;;;1.98;1.00;;;32.60;54.20;;;31.37;33.41;99226.25;12368718;23;96320;-90
2023/07/02 13:18:36;;;;;;;2.05;0.80;;;33.00;53.30;;;31.53;32.03;99227.28;12342581;23;96386;-89
2023/07/02 13:23:40;;;;;;;1.08;0.80;;;33.30;52.10;;;31.34;32.81;99232.38;12345708;23;96859;-89
2023/07/02 13:28:46;;;;;;;3.53;1.02;;;32.80;52.40;;;31.48;33.45;99243.13;12343502;23;97338;-89
2023/07/02 13:33:50;;;;;;;1.10;0.90;;;32.60;52.90;;;31.55;32.54;99225.03;12319657;23;96907;-88
2023/07/02 13:38:54;;;;;;;2.50;0.80;;;32.40;52.80;;;31.62;32.46;99225.31;12343126;23;96417;-88
2023/07/02 13:43:58;;;;;;;2.20;0.90;;;32.20;53.10;;;31.39;33.33;99226.72;12341937;23;96992;-88
2023/07/02 13:49:02;;;;;;;2.30;1.10;;;31.90;53.90;;;31.12;33.52;99236.94;12318537;23;96833;-87
2023/07/02 13:54:05;;;;;;;1.95;0.95;;;31.50;53.70;;;30.95;34.26;99231.53;12319561;23;96951;-88
2023/07/02 13:59:09;;;;;;;1.33;0.80;;;31.40;54.10;;;30.72;33.23;99236.41;12342476;23;96537;-88
2023/07/02 14:04:15;;;;;;;1.83;0.80;;;31.30;53.70;;;30.57;34.76;99237.66;12341457;23;96947;-88
2023/07/02 14:09:19;;;;;;;2.50;1.05;;;31.20;54.50;;;30.69;34.73;99253.47;12343288;23;96452;-90
2023/07/02 14:14:23;;;;;;;1.50;1.00;;;31.30;54.60;;;30.33;33.77;99238.13;12339682;23;96462;-88
2023/07/02 14:19:26;;;;;;;1.15;1.00;;;31.20;54.00;;;29.85;35.57;99243.69;12340581;23;96477;-87
2023/07/02 14:24:30;;;;;;;1.55;0.93;;;30.70;54.70;;;29.19;36.46;99250.97;12342907;23;96439;-88
2023/07/02 14:29:34;;;;;;;1.35;1.00;;;30.20;55.20;;;28.74;38.10;99248.28;12339288;23;96901;-88
2023/07/02 14:34:37;;;;;;;5.82;1.58;;;29.60;56.50;;;28.91;38.13;99253.03;12340109;23;96648;-88
2023/07/02 14:39:41;;;;;;;1.20;0.90;;;29.80;56.90;;;29.18;37.98;99266.59;12344704;23;96534;-91
2023/07/02 14:45:04;;;;;;;2.63;1.20;;;30.10;56.80;;;29.28;37.72;99258.13;12344456;23;96874;-88
2023/07/02 14:50:08;;;;;;;2.63;1.17;;;30.40;56.50;;;29.41;37.29;99261.88;12342711;23;97382;-87
2023/07/02 14:55:12;;;;;;;1.88;1.08;;;30.60;56.00;;;29.58;37.28;99258.44;12320711;23;96573;-88
2023/07/02 15:00:16;;;;;;;1.50;1.20;;;30.80;55.90;;;29.78;37.10;99255.13;12354110;23;96599;-89
2023/07/02 15:05:20;;;;;;;1.73;1.00;;;31.10;56.00;;;29.95;35.54;99253.56;12317268;23;97259;-87
2023/07/02 15:10:23;;;;;;;1.30;1.10;;;31.20;55.10;;;29.88;35.97;99254.03;12341094;23;96926;-87
2023/07/02 15:15:27;;;;;;;3.05;0.95;;;31.00;54.90;;;29.90;34.99;99261.91;12317931;23;96560;-86
2023/07/02 15:20:30;;;;;;;2.15;1.27;;;30.90;54.40;;;29.75;34.68;99260.44;12341160;23;97061;-88
2023/07/02 15:25:34;;;;;;;2.83;0.95;;;30.90;53.90;;;29.65;34.01;99274.41;12341851;23;96454;-86
2023/07/02 15:30:39;;;;;;;2.60;0.80;;;30.80;52.80;;;29.76;32.64;99262.03;12340058;23;96918;-87
2023/07/02 15:35:42;;;;;;;2.60;1.35;;;31.00;52.30;;;30.02;33.71;99271.13;12344061;23;96547;-87
2023/07/02 15:40:48;;;;;;;2.42;0.90;;;31.30;52.50;;;30.16;32.11;99272.94;12343615;23;96770;-88
2023/07/02 15:45:52;;;;;;;2.13;0.98;;;31.50;50.90;;;30.31;32.69;99272.50;12342796;23;96671;-88
2023/07/02 15:50:56;;;;;;;1.00;0.90;;;31.60;51.30;;;30.24;32.40;99278.44;12343538;23;96350;-89
2023/07/02 15:56:00;;;;;;;1.77;1.10;;;31.60;50.80;;;30.16;32.62;99276.50;12366245;23;96944;-89
2023/07/02 16:01:15;;;;;;;2.85;1.25;;;31.40;51.10;;;30.25;32.83;99282.00;12341641;23;96679;-89
2023/07/02 16:06:19;;;;;;;1.50;1.10;;;31.50;51.30;;;30.20;33.88;99276.66;12342905;23;96707;-88
2023/07/02 16:11:24;;;;;;;1.80;1.30;;;31.30;51.90;;;30.16;34.03;99279.22;12343487;23;97285;-88
2023/07/02 16:16:27;;;;;;;3.10;1.13;;;31.30;52.40;;;30.03;34.66;99277.41;12362119;23;97166;-88
2023/07/02 16:21:33;;;;;;;3.83;1.30;;;31.00;53.20;;;30.07;34.42;99289.34;12343078;23;96692;-88
2023/07/02 16:26:37;;;;;;;1.40;1.15;;;30.90;53.50;;;29.88;34.30;99299.78;12342819;23;96576;-88
2023/07/02 16:31:52;;;;;;;4.40;1.10;;;30.60;53.20;;;29.66;35.45;99309.66;12342916;23;96618;-89
2023/07/02 16:36:57;;;;;;;2.25;1.30;;;30.40;54.10;;;29.36;35.73;99303.06;12343037;23;96839;-87
2023/07/02 16:42:01;;;;;;;2.05;1.10;;;30.10;54.30;;;28.99;36.10;99316.03;12342609;23;96556;-89
2023/07/02 16:47:05;;;;;;;2.85;1.20;;;29.90;54.20;;;28.38;36.46;99311.97;12340557;23;96766;-87
2023/07/02 16:52:08;;;;;;;2.00;1.20;;;29.30;54.60;;;28.04;37.52;99322.50;12342792;23;96674;-88
2023/07/02 16:57:12;;;;;;;1.65;1.08;;;28.90;55.30;;;28.18;37.76;99320.56;12367805;23;96832;-88
2023/07/02 17:02:16;;;;;;;1.40;1.10;;;29.10;55.60;;;28.28;36.91;99320.34;12319136;23;96381;-88
2023/07/02 17:07:19;;;;;;;2.08;1.20;;;29.20;55.20;;;28.30;37.16;99320.84;12342892;23;96477;-88
2023/07/02 17:12:23;;;;;;;2.35;1.10;;;29.20;55.30;;;28.32;37.25;99320.59;12342764;23;97095;-88
2023/07/02 17:17:28;;;;;;;1.60;1.20;;;29.20;55.20;;;28.20;37.38;99334.72;12341871;23;96428;-89
2023/07/02 17:22:32;;;;;;;2.67;1.30;;;29.10;55.30;;;27.90;37.82;99333.44;12344121;23;96826;-89
2023/07/02 17:27:36;;;;;;;2.25;1.30;;;28.90;55.60;;;27.58;37.71;99348.72;12342598;23;96868;-87
2023/07/02 17:32:39;;;;;;;1.50;1.10;;;28.50;55.60;;;27.13;39.21;99356.59;12367765;23;96416;-87
2023/07/02 17:37:43;;;;;;;2.60;1.52;;;28.00;56.40;;;26.62;40.31;99359.25;12366303;23;96730;-87
2023/07/02 17:42:47;;;;;;;4.05;1.60;;;27.50;57.50;;;26.12;41.62;99354.13;12320548;23;96611;-86
2023/07/02 17:47:51;;;;;;;2.33;1.38;;;27.00;58.50;;;25.79;42.59;99372.22;12342175;23;96508;-87
2023/07/02 17:52:55;;;;;;;3.55;1.60;;;26.60;59.50;;;25.50;43.51;99368.66;12342041;23;96386;-87
2023/07/02 17:57:59;;;;;;;2.03;1.65;;;26.30;60.40;;;25.22;44.61;99371.06;12343367;23;96419;-86
2023/07/02 18:03:02;;;;;;;2.40;1.30;;;26.10;61.20;;;25.02;44.66;99365.78;12341925;23;96523;-86
2023/07/02 18:08:06;;;;;;;2.80;1.27;;;25.80;61.50;;;24.87;44.59;99376.72;12342998;23;96411;-87
2023/07/02 18:13:11;;;;;;;5.50;1.48;;;25.70;61.70;;;24.71;43.81;99381.44;12344368;23;96440;-86
2023/07/02 18:18:15;;;;;;;3.83;1.67;;;25.50;61.10;;;24.50;43.71;99381.56;12349492;23;96456;-87
2023/07/02 18:23:19;;;;;;;3.28;1.73;;;25.30;60.70;;;24.34;44.09;99393.56;12342404;23;96538;-88
2023/07/02 18:28:24;;;;;;;2.70;1.38;;;25.10;60.90;;;24.19;44.59;99394.44;12341074;23;96387;-86
2023/07/02 18:33:31;;;;;;;2.55;1.30;;;25.00;61.30;;;24.06;45.12;99399.63;12341126;23;96434;-88
2023/07/02 18:38:35;;;;;;;1.52;1.10;;;24.90;61.70;;;23.89;45.34;99413.50;12342561;23;96450;-87
2023/07/02 18:43:40;;;;;;;1.77;1.13;;;24.70;62.00;;;23.73;45.83;99413.53;12340657;23;96486;-88
2023/07/02 18:48:44;;;;;;;2.33;1.38;;;24.60;62.60;;;23.65;46.43;99430.34;12353917;23;96888;-87
2023/07/02 18:53:50;;;;;;;1.98;1.40;;;24.40;63.00;;;23.53;46.95;99440.63;12324315;23;96372;-87
2023/07/02 18:58:54;;;;;;;3.83;1.52;;;24.30;63.40;;;23.42;46.96;99444.44;12343360;23;96460;-87
2023/07/02 19:03:58;;;;;;;2.03;0.85;;;24.30;63.80;;;23.32;47.44;99452.53;12321215;23;97304;-87
2023/07/02 19:09:02;;;;;;;2.00;1.00;;;24.20;64.10;;;23.26;47.71;99470.69;12321633;23;96433;-87
2023/07/02 19:14:06;;;;;;;3.70;1.30;;;24.10;64.50;;;23.13;48.66;99477.44;12320750;23;96411;-86
2023/07/02 19:19:09;;;;;;;2.53;1.20;;;24.00;65.20;;;23.00;49.38;99477.16;12367855;23;96473;-87
2023/07/02 19:24:13;;;;;;;3.40;1.17;;;23.80;65.50;;;22.81;50.13;99495.75;12344805;23;96416;-87
2023/07/02 19:29:20;;;;;;;2.10;1.20;;;23.60;66.30;;;22.68;50.70;99502.47;12345183;23;96375;-87
2023/07/02 19:34:24;;;;;;;1.98;1.15;;;23.50;67.10;;;22.54;51.19;99506.72;12344511;23;96585;-86
2023/07/02 19:39:30;;;;;;;3.22;1.30;;;23.40;68.00;;;22.44;51.36;99513.72;12368612;23;97159;-87
2023/07/02 19:44:34;;;;;;;2.95;1.27;;;23.30;67.90;;;22.32;52.29;99515.00;12344912;23;96608;-87
2023/07/02 19:49:43;;;;;;;1.83;1.20;;;23.20;68.40;;;22.22;53.12;99523.06;12341163;23;96852;-88
2023/07/02 19:54:50;;;;;;;3.20;1.45;;;23.10;69.00;;;22.11;53.36;99536.50;12346839;23;96864;-88
2023/07/02 19:59:53;;;;;;;3.20;1.52;;;22.90;69.50;;;22.03;53.51;99539.66;12344375;23;97056;-88
2023/07/02 20:05:02;;;;;;;4.65;1.60;;;22.90;69.80;;;21.96;54.00;99549.09;12343863;23;96475;-89
2023/07/02 20:10:07;;;;;;;3.17;1.67;;;22.80;70.10;;;21.82;54.33;99548.69;12341984;23;96526;-88
2023/07/02 20:15:11;;;;;;;4.97;1.67;;;22.70;70.40;;;21.79;54.44;99565.44;12342169;23;96540;-88
2023/07/02 20:20:15;;;;;;;4.07;2.13;;;22.60;70.60;;;21.70;54.75;99562.38;12342108;23;96354;-88
2023/07/02 20:25:19;;;;;;;2.90;1.77;;;22.50;70.90;;;21.62;54.96;99566.34;12341722;23;96533;-88
2023/07/02 20:30:44;;;;;;;4.93;1.80;;;22.50;71.20;;;21.56;55.26;99577.38;12349098;23;96463;-88
2023/07/02 20:35:48;;;;;;;5.10;1.65;;;22.40;71.30;;;21.46;55.40;99577.25;12343900;23;97477;-88
2023/07/02 20:41:01;;;;;;;3.17;1.70;;;22.30;71.40;;;21.40;55.62;99584.50;12343133;23;96424;-88
2023/07/02 20:46:06;;;;;;;3.17;2.00;;;22.30;71.70;;;21.31;55.96;99589.56;12345278;23;96518;-88
2023/07/02 20:51:10;;;;;;;5.45;1.88;;;22.10;71.70;;;21.16;56.08;99586.63;12342189;23;96602;-88
2023/07/02 20:56:14;;;;;;;4.07;1.67;;;22.00;72.10;;;21.05;56.41;99596.50;12343596;23;96387;-87
2023/07/02 21:01:17;;;;;;;3.97;1.90;;;21.90;72.40;;;20.95;56.94;99592.84;12340077;23;96720;-87
2023/07/02 21:06:24;;;;;;;3.33;1.70;;;21.80;72.60;;;20.88;56.89;99600.34;12319609;23;96929;-88